createdAt,value
2017-09-18T00:00:18.233Z,101149.61
2017-09-18T00:02:45.950Z,101145.48
2017-09-18T00:05:13.638Z,101149.33
2017-09-18T00:07:41.360Z,101146.73
2017-09-18T00:10:09.082Z,101147.44
2017-09-18T00:12:36.855Z,101146.38
2017-09-18T00:15:04.563Z,101142.93
2017-09-18T00:17:32.290Z,101140.34
2017-09-18T00:19:59.968Z,101145.17
2017-09-18T00:22:27.707Z,101143.00
2017-09-18T00:24:55.408Z,101143.17
2017-09-18T00:27:23.139Z,101146.98
2017-09-18T00:29:50.813Z,101145.55
2017-09-18T00:32:18.571Z,101148.30
2017-09-18T00:34:46.271Z,101145.28
2017-09-18T00:37:14.033Z,101147.83
2017-09-18T00:39:41.703Z,101141.66
2017-09-18T00:42:09.433Z,101144.16
2017-09-18T00:44:37.113Z,101146.09
2017-09-18T00:47:04.874Z,101140.47
2017-09-18T00:49:32.577Z,101141.91
2017-09-18T00:52:00.330Z,101150.81
2017-09-18T00:54:28.039Z,101152.91
2017-09-18T00:56:55.793Z,101156.66
2017-09-18T00:59:23.485Z,101159.44
2017-09-18T01:01:51.261Z,101161.25
2017-09-18T01:04:18.949Z,101157.45
2017-09-18T01:06:46.682Z,101159.95
2017-09-18T01:09:14.370Z,101160.28
2017-09-18T01:11:42.109Z,101158.34
2017-09-18T01:14:09.946Z,101152.83
2017-09-18T01:16:37.669Z,101158.52
2017-09-18T01:19:05.359Z,101158.20
2017-09-18T01:21:33.147Z,101158.72
2017-09-18T01:24:01.004Z,101150.89
2017-09-18T01:26:28.726Z,101154.46
2017-09-18T01:28:56.399Z,101146.53
2017-09-18T01:31:24.122Z,101146.95
2017-09-18T01:33:51.823Z,101146.39
2017-09-18T01:36:19.578Z,101141.80
2017-09-18T01:38:47.345Z,101136.00
2017-09-18T01:41:15.012Z,101142.72
2017-09-18T01:43:42.730Z,101138.83
2017-09-18T01:46:10.428Z,101131.92
2017-09-18T01:48:38.153Z,101140.68
2017-09-18T01:51:05.833Z,101144.44
2017-09-18T01:53:33.550Z,101143.37
2017-09-18T01:56:01.257Z,101150.22
2017-09-18T01:58:29.030Z,101146.09
2017-09-18T02:00:56.614Z,101146.38
2017-09-18T02:03:24.361Z,101145.45
2017-09-18T02:05:52.076Z,101146.17
2017-09-18T02:08:19.828Z,101142.11
2017-09-18T02:10:47.521Z,101147.16
2017-09-18T02:13:15.266Z,101147.20
2017-09-18T02:15:42.964Z,101143.38
2017-09-18T02:18:10.686Z,101138.98
2017-09-18T02:20:38.384Z,101133.14
2017-09-18T02:23:06.121Z,101138.70
2017-09-18T02:25:33.826Z,101134.93
2017-09-18T02:28:01.558Z,101139.74
2017-09-18T02:30:29.259Z,101135.78
2017-09-18T02:32:57.001Z,101140.38
2017-09-18T02:35:24.699Z,101143.75
2017-09-18T02:37:52.473Z,101142.72
2017-09-18T02:40:20.171Z,101147.62
2017-09-18T02:42:47.929Z,101147.52
2017-09-18T02:45:15.631Z,101149.88
2017-09-18T02:47:43.387Z,101138.34
2017-09-18T02:50:11.068Z,101142.37
2017-09-18T02:52:38.805Z,101151.41
2017-09-18T02:55:06.488Z,101136.30
2017-09-18T02:57:34.207Z,101140.85
2017-09-18T03:00:01.893Z,101142.28
2017-09-18T03:02:29.612Z,101141.00
2017-09-18T03:04:57.290Z,101144.30
2017-09-18T03:07:25.026Z,101141.50
2017-09-18T03:09:52.704Z,101145.53
2017-09-18T03:12:20.503Z,101143.55
2017-09-18T03:14:48.200Z,101144.35
2017-09-18T03:17:15.908Z,101138.03
2017-09-18T03:19:43.634Z,101133.27
2017-09-18T03:22:11.306Z,101139.34
2017-09-18T03:24:39.029Z,101132.07
2017-09-18T03:27:06.731Z,101142.72
2017-09-18T03:29:34.474Z,101138.53
2017-09-18T03:32:02.185Z,101145.22
2017-09-18T03:34:29.915Z,101143.75
2017-09-18T03:36:57.641Z,101135.09
2017-09-18T03:39:25.414Z,101142.08
2017-09-18T03:41:53.138Z,101141.78
2017-09-18T03:44:20.935Z,101146.27
2017-09-18T03:46:48.688Z,101144.84
2017-09-18T03:49:16.468Z,101147.36
2017-09-18T03:51:44.184Z,101143.75
2017-09-18T03:54:11.972Z,101152.48
2017-09-18T03:56:39.676Z,101145.86
2017-09-18T03:59:07.441Z,101160.19
2017-09-18T04:01:35.136Z,101162.47
2017-09-18T04:04:03.038Z,101158.77
2017-09-18T04:06:30.728Z,101169.70
2017-09-18T04:08:58.450Z,101164.05
2017-09-18T04:11:26.151Z,101164.46
2017-09-18T04:13:53.870Z,101163.36
2017-09-18T04:16:21.550Z,101162.42
2017-09-18T04:18:49.277Z,101155.67
2017-09-18T04:21:16.995Z,101156.80
2017-09-18T04:23:44.753Z,101153.47
2017-09-18T04:26:12.470Z,101155.16
2017-09-18T04:28:40.386Z,101161.55
2017-09-18T04:31:08.091Z,101164.05
2017-09-18T04:33:35.867Z,101172.84
2017-09-18T04:36:03.588Z,101174.03
2017-09-18T04:38:31.396Z,101181.23
2017-09-18T04:40:59.093Z,101173.80
2017-09-18T04:43:26.868Z,101182.55
2017-09-18T04:45:54.567Z,101191.00
2017-09-18T04:48:22.335Z,101185.48
2017-09-18T04:50:50.062Z,101193.01
2017-09-18T04:53:17.792Z,101189.30
2017-09-18T04:55:45.527Z,101186.69
2017-09-18T04:58:13.239Z,101190.31
2017-09-18T05:00:40.956Z,101188.52
2017-09-18T05:03:08.668Z,101193.63
2017-09-18T05:05:36.418Z,101201.54
2017-09-18T05:08:04.105Z,101209.00
2017-09-18T05:10:31.866Z,101209.83
2017-09-18T05:12:59.572Z,101211.62
2017-09-18T05:15:27.325Z,101207.47
2017-09-18T05:17:55.028Z,101204.38
2017-09-18T05:20:22.763Z,101204.36
2017-09-18T05:22:50.451Z,101208.66
2017-09-18T05:25:18.189Z,101204.19
2017-09-18T05:27:45.873Z,101209.30
2017-09-18T05:30:13.660Z,101216.22
2017-09-18T05:32:41.356Z,101212.37
2017-09-18T05:35:09.117Z,101220.93
2017-09-18T05:37:36.841Z,101215.25
2017-09-18T05:40:04.578Z,101211.61
2017-09-18T05:42:32.259Z,101206.27
2017-09-18T05:44:59.985Z,101208.62
2017-09-18T05:47:27.676Z,101209.87
2017-09-18T05:49:55.413Z,101203.92
2017-09-18T05:52:23.104Z,101207.03
2017-09-18T05:54:50.845Z,101199.96
2017-09-18T05:57:18.547Z,101204.30
2017-09-18T05:59:46.301Z,101205.03
2017-09-18T06:02:13.975Z,101211.56
2017-09-18T06:04:41.712Z,101212.52
2017-09-18T06:07:09.422Z,101214.59
2017-09-18T06:09:37.152Z,101220.03
2017-09-18T06:12:04.862Z,101221.58
2017-09-18T06:14:32.600Z,101215.36
2017-09-18T06:17:00.298Z,101221.67
2017-09-18T06:19:28.060Z,101226.50
2017-09-18T06:21:55.767Z,101225.99
2017-09-18T06:24:23.521Z,101228.89
2017-09-18T06:26:51.216Z,101220.78
2017-09-18T06:29:18.980Z,101218.17
2017-09-18T06:31:46.589Z,101219.81
2017-09-18T06:34:14.310Z,101219.00
2017-09-18T06:36:42.090Z,101216.09
2017-09-18T06:39:09.804Z,101221.66
2017-09-18T06:41:37.549Z,101220.44
2017-09-18T06:44:05.244Z,101218.69
2017-09-18T06:46:33.024Z,101220.95
2017-09-18T06:49:00.751Z,101221.36
2017-09-18T06:51:28.537Z,101224.03
2017-09-18T06:53:56.149Z,101222.49
2017-09-18T06:56:24.028Z,101217.40
2017-09-18T06:58:51.748Z,101212.87
2017-09-18T07:01:19.516Z,101220.17
2017-09-18T07:03:47.256Z,101221.60
2017-09-18T07:06:15.079Z,101219.48
2017-09-18T07:08:42.815Z,101226.98
2017-09-18T07:11:10.603Z,101232.50
2017-09-18T07:13:38.314Z,101233.91
2017-09-18T07:16:06.055Z,101232.38
2017-09-18T07:18:33.773Z,101238.97
2017-09-18T07:21:01.559Z,101248.67
2017-09-18T07:23:29.255Z,101251.63
2017-09-18T07:25:57.019Z,101247.72
2017-09-18T07:28:24.713Z,101250.19
2017-09-18T07:30:52.469Z,101249.67
2017-09-18T07:33:20.167Z,101251.27
2017-09-18T07:35:47.933Z,101252.52
2017-09-18T07:38:15.695Z,101251.02
2017-09-18T07:40:43.476Z,101250.50
2017-09-18T07:43:11.222Z,101266.16
2017-09-18T07:45:38.999Z,101253.63
2017-09-18T07:48:06.741Z,101256.00
2017-09-18T07:50:34.492Z,101256.87
2017-09-18T07:53:02.218Z,101253.34
2017-09-18T07:55:29.965Z,101261.72
2017-09-18T07:57:57.710Z,101257.47
2017-09-18T08:00:25.516Z,101261.58
2017-09-18T08:02:53.140Z,101259.67
2017-09-18T08:05:20.894Z,101257.75
2017-09-18T08:07:48.600Z,101253.99
2017-09-18T08:10:16.373Z,101257.53
2017-09-18T08:12:44.054Z,101261.56
2017-09-18T08:15:11.897Z,101258.84
2017-09-18T08:17:39.679Z,101252.45
2017-09-18T08:20:07.386Z,101257.33
2017-09-18T08:22:35.154Z,101255.94
2017-09-18T08:25:02.868Z,101246.86
2017-09-18T08:27:30.663Z,101247.05
2017-09-18T08:29:58.389Z,101246.92
2017-09-18T08:32:26.157Z,101237.45
2017-09-18T08:34:53.847Z,101244.38
2017-09-18T08:37:21.547Z,101246.10
2017-09-18T08:39:49.243Z,101247.98
2017-09-18T08:42:16.990Z,101252.34
2017-09-18T08:44:44.691Z,101244.52
2017-09-18T08:47:12.476Z,101247.56
2017-09-18T08:49:40.167Z,101241.22
2017-09-18T08:52:07.935Z,101238.16
2017-09-18T08:54:35.666Z,101244.84
2017-09-18T08:57:03.413Z,101246.08
2017-09-18T08:59:31.122Z,101246.72
2017-09-18T09:01:58.927Z,101242.19
2017-09-18T09:04:26.641Z,101245.72
2017-09-18T09:06:54.385Z,101242.03
2017-09-18T09:09:22.118Z,101241.50
2017-09-18T09:11:49.903Z,101245.77
2017-09-18T09:14:17.637Z,101242.86
2017-09-18T09:16:45.404Z,101242.39
2017-09-18T09:19:13.135Z,101243.31
2017-09-18T09:21:40.872Z,101244.09
2017-09-18T09:24:08.585Z,101242.25
2017-09-18T09:26:36.336Z,101244.30
2017-09-18T09:29:04.058Z,101242.61
2017-09-18T09:31:31.819Z,101237.41
2017-09-18T09:33:59.568Z,101237.73
2017-09-18T09:36:27.433Z,101237.50
2017-09-18T09:38:55.628Z,101236.34
2017-09-18T09:41:23.381Z,101239.40
2017-09-18T09:43:51.098Z,101229.81
2017-09-18T09:46:18.843Z,101234.44
2017-09-18T09:48:46.540Z,101241.48
2017-09-18T09:51:14.295Z,101245.08
2017-09-18T09:53:42.024Z,101242.75
2017-09-18T09:56:09.779Z,101236.78
2017-09-18T09:58:37.486Z,101238.29
2017-09-18T10:01:05.181Z,101239.75
2017-09-18T10:03:32.942Z,101247.39
2017-09-18T10:06:00.629Z,101245.00
2017-09-18T10:08:28.422Z,101248.86
2017-09-18T10:10:56.110Z,101247.00
2017-09-18T10:13:23.839Z,101245.49
2017-09-18T10:15:51.565Z,101245.70
2017-09-18T10:18:19.358Z,101256.34
2017-09-18T10:20:47.070Z,101249.63
2017-09-18T10:23:14.815Z,101254.42
2017-09-18T10:25:42.498Z,101259.12
2017-09-18T10:28:10.286Z,101260.47
2017-09-18T10:30:38.004Z,101254.80
2017-09-18T10:33:05.766Z,101257.45
2017-09-18T10:35:33.483Z,101262.17
2017-09-18T10:38:01.296Z,101259.72
2017-09-18T10:40:29.016Z,101256.58
2017-09-18T10:42:56.791Z,101258.13
2017-09-18T10:45:24.496Z,101263.04
2017-09-18T10:47:52.233Z,101263.91
2017-09-18T10:50:19.966Z,101258.78
2017-09-18T10:52:47.722Z,101262.19
2017-09-18T10:55:15.458Z,101265.49
2017-09-18T10:57:43.194Z,101262.27
2017-09-18T11:00:10.902Z,101259.67
2017-09-18T11:02:38.660Z,101261.60
2017-09-18T11:05:06.385Z,101266.42
2017-09-18T11:07:34.158Z,101257.31
2017-09-18T11:10:01.880Z,101266.66
2017-09-18T11:12:29.653Z,101259.64
2017-09-18T11:14:57.361Z,101257.39
2017-09-18T11:17:25.129Z,101255.62
2017-09-18T11:19:52.847Z,101252.22
2017-09-18T11:22:20.592Z,101257.80
2017-09-18T11:24:48.331Z,101240.33
2017-09-18T11:27:16.467Z,101242.82
2017-09-18T11:29:44.175Z,101244.77
2017-09-18T11:32:11.959Z,101248.52
2017-09-18T11:34:39.647Z,101249.56
2017-09-18T11:37:07.400Z,101247.32
2017-09-18T11:39:35.172Z,101245.28
2017-09-18T11:42:02.914Z,101240.61
2017-09-18T11:44:30.654Z,101242.77
2017-09-18T11:46:58.414Z,101243.55
2017-09-18T11:49:26.174Z,101241.98
2017-09-18T11:51:53.904Z,101243.46
2017-09-18T11:54:21.689Z,101240.72
2017-09-18T11:56:49.405Z,101241.13
2017-09-18T11:59:17.158Z,101237.52
2017-09-18T12:01:44.917Z,101241.36
2017-09-18T12:04:12.685Z,101250.95
2017-09-18T12:06:40.368Z,101245.95
2017-09-18T12:09:08.148Z,101239.68
2017-09-18T12:11:35.876Z,101245.49
2017-09-18T12:14:03.845Z,101248.95
2017-09-18T12:16:31.564Z,101246.72
2017-09-18T12:18:59.318Z,101241.10
2017-09-18T12:21:26.938Z,101236.81
2017-09-18T12:23:54.628Z,101245.36
2017-09-18T12:26:22.329Z,101245.72
2017-09-18T12:28:50.083Z,101239.48
2017-09-18T12:31:17.812Z,101237.58
2017-09-18T12:33:45.583Z,101234.48
2017-09-18T12:36:13.219Z,101223.87
2017-09-18T12:38:41.008Z,101233.56
2017-09-18T12:41:08.715Z,101230.50
2017-09-18T12:43:36.360Z,101233.55
2017-09-18T12:46:04.078Z,101233.30
2017-09-18T12:48:31.834Z,101237.91
2017-09-18T12:50:59.525Z,101232.86
2017-09-18T12:53:27.273Z,101228.73
2017-09-18T12:55:54.986Z,101237.58
2017-09-18T12:58:22.750Z,101239.38
2017-09-18T13:00:50.472Z,101235.84
2017-09-18T13:03:18.231Z,101242.44
2017-09-18T13:05:45.959Z,101242.28
2017-09-18T13:08:13.730Z,101239.56
2017-09-18T13:10:41.408Z,101235.23
2017-09-18T13:13:09.195Z,101236.42
2017-09-18T13:15:36.890Z,101239.36
2017-09-18T13:18:04.676Z,101233.81
2017-09-18T13:20:32.413Z,101239.16
2017-09-18T13:23:00.027Z,101237.27
2017-09-18T13:25:27.767Z,101234.96
2017-09-18T13:27:55.479Z,101231.36
2017-09-18T13:30:23.243Z,101231.00
2017-09-18T13:32:50.857Z,101230.58
2017-09-18T13:35:18.621Z,101233.51
2017-09-18T13:37:46.383Z,101227.31
2017-09-18T13:40:14.143Z,101225.48
2017-09-18T13:42:41.861Z,101233.22
2017-09-18T13:45:09.643Z,101227.11
2017-09-18T13:47:37.356Z,101224.03
2017-09-18T13:50:05.103Z,101225.46
2017-09-18T13:52:32.822Z,101225.53
2017-09-18T13:55:00.591Z,101224.94
2017-09-18T13:57:28.278Z,101225.02
2017-09-18T13:59:56.040Z,101227.64
2017-09-18T14:02:23.724Z,101226.44
2017-09-18T14:04:51.487Z,101233.44
2017-09-18T14:07:19.196Z,101238.55
2017-09-18T14:09:46.871Z,101239.91
2017-09-18T14:12:14.586Z,101237.88
2017-09-18T14:14:42.376Z,101238.02
2017-09-18T14:17:10.112Z,101233.69
2017-09-18T14:19:37.866Z,101226.80
2017-09-18T14:22:05.488Z,101222.47
2017-09-18T14:24:33.248Z,101226.33
2017-09-18T14:27:00.948Z,101230.14
2017-09-18T14:29:28.600Z,101230.00
2017-09-18T14:31:56.302Z,101224.78
2017-09-18T14:34:24.051Z,101224.52
2017-09-18T14:36:51.858Z,101232.57
2017-09-18T14:39:19.666Z,101231.52
2017-09-18T14:41:47.399Z,101217.35
2017-09-18T14:44:15.148Z,101220.17
2017-09-18T14:46:42.876Z,101215.23
2017-09-18T14:49:10.641Z,101221.08
2017-09-18T14:51:38.380Z,101212.46
2017-09-18T14:54:06.133Z,101217.11
2017-09-18T14:56:33.848Z,101217.56
2017-09-18T14:59:01.606Z,101212.55
2017-09-18T15:01:29.361Z,101218.59
2017-09-18T15:03:57.107Z,101219.91
2017-09-18T15:06:24.874Z,101206.08
2017-09-18T15:08:52.476Z,101214.81
2017-09-18T15:11:20.245Z,101213.11
2017-09-18T15:13:47.993Z,101216.48
2017-09-18T15:16:15.792Z,101217.59
2017-09-18T15:18:43.524Z,101222.89
2017-09-18T15:21:11.279Z,101225.33
2017-09-18T15:23:39.001Z,101227.80
2017-09-18T15:26:06.785Z,101229.47
2017-09-18T15:28:34.532Z,101234.02
2017-09-18T15:31:02.304Z,101229.39
2017-09-18T15:33:29.993Z,101232.88
2017-09-18T15:35:57.745Z,101229.20
2017-09-18T15:38:25.506Z,101231.86
2017-09-18T15:40:53.276Z,101233.14
2017-09-18T15:43:20.999Z,101241.55
2017-09-18T15:45:48.747Z,101238.58
2017-09-18T15:48:16.468Z,101240.34
2017-09-18T15:50:44.229Z,101241.08
2017-09-18T15:53:11.940Z,101244.84
2017-09-18T15:55:39.687Z,101243.05
2017-09-18T15:58:07.384Z,101242.56
2017-09-18T16:00:35.163Z,101246.84
2017-09-18T16:03:02.889Z,101247.52
2017-09-18T16:05:30.635Z,101251.78
2017-09-18T16:07:58.384Z,101252.36
2017-09-18T16:10:26.191Z,101247.55
2017-09-18T16:12:53.876Z,101252.11
2017-09-18T16:15:21.617Z,101246.75
2017-09-18T16:17:49.313Z,101250.48
2017-09-18T16:20:17.080Z,101260.45
2017-09-18T16:22:44.825Z,101255.52
2017-09-18T16:25:12.589Z,101255.77
2017-09-18T16:27:40.298Z,101259.41
2017-09-18T16:30:08.055Z,101261.55
2017-09-18T16:32:35.791Z,101259.16
2017-09-18T16:35:03.529Z,101263.36
2017-09-18T16:37:31.276Z,101259.13
2017-09-18T16:39:59.008Z,101258.94
2017-09-18T16:42:26.772Z,101262.46
2017-09-18T16:44:54.491Z,101263.21
2017-09-18T16:47:22.273Z,101265.20
2017-09-18T16:49:49.968Z,101272.28
2017-09-18T16:52:17.707Z,101269.50
2017-09-18T16:54:45.408Z,101270.16
2017-09-18T16:57:13.170Z,101274.03
2017-09-18T16:59:40.900Z,101265.72
2017-09-18T17:02:08.678Z,101268.77
2017-09-18T17:04:36.381Z,101265.22
2017-09-18T17:07:04.132Z,101271.88
2017-09-18T17:09:31.896Z,101273.17
2017-09-18T17:12:00.597Z,101274.58
2017-09-18T17:14:28.317Z,101272.16
2017-09-18T17:16:56.101Z,101275.78
2017-09-18T17:19:23.823Z,101278.66
2017-09-18T17:21:51.603Z,101282.03
2017-09-18T17:24:19.333Z,101286.38
2017-09-18T17:26:47.140Z,101283.16
2017-09-18T17:29:14.837Z,101287.50
2017-09-18T17:31:42.602Z,101288.55
2017-09-18T17:34:10.334Z,101297.95
2017-09-18T17:36:38.121Z,101295.19
2017-09-18T17:39:05.859Z,101299.92
2017-09-18T17:41:33.621Z,101301.59
2017-09-18T17:44:01.338Z,101296.81
2017-09-18T17:46:29.218Z,101297.25
2017-09-18T17:48:56.986Z,101297.23
2017-09-18T17:51:24.750Z,101301.89
2017-09-18T17:53:52.416Z,101304.11
2017-09-18T17:56:20.171Z,101305.84
2017-09-18T17:58:47.898Z,101311.30
2017-09-18T18:01:15.662Z,101313.84
2017-09-18T18:03:43.363Z,101314.17
2017-09-18T18:06:15.791Z,101318.87
2017-09-18T18:08:43.524Z,101324.98
2017-09-18T18:11:17.857Z,101329.25
2017-09-18T18:13:48.772Z,101327.89
2017-09-18T18:16:19.480Z,101329.78
2017-09-18T18:18:50.240Z,101332.00
2017-09-18T18:21:20.662Z,101336.92
2017-09-18T18:23:51.787Z,101331.87
2017-09-18T18:26:22.776Z,101333.88
2017-09-18T18:28:53.494Z,101340.43
2017-09-18T18:31:24.433Z,101344.14
2017-09-18T18:33:55.280Z,101341.64
2017-09-18T18:36:26.028Z,101347.62
2017-09-18T18:38:56.787Z,101349.25
2017-09-18T18:41:27.598Z,101352.71
2017-09-18T18:43:58.379Z,101347.83
2017-09-18T18:46:29.903Z,101347.77
2017-09-18T18:49:00.357Z,101351.61
2017-09-18T18:51:31.147Z,101347.14
2017-09-18T18:54:02.120Z,101350.55
2017-09-18T18:56:33.276Z,101359.61
2017-09-18T18:59:04.260Z,101367.55
2017-09-18T19:01:35.258Z,101360.34
2017-09-18T19:04:06.582Z,101358.47
2017-09-18T19:06:37.550Z,101362.05
2017-09-18T19:09:08.489Z,101357.16
2017-09-18T19:11:39.287Z,101359.70
2017-09-18T19:14:10.129Z,101359.26
2017-09-18T19:16:40.709Z,101358.95
2017-09-18T19:19:11.949Z,101361.08
2017-09-18T19:21:46.096Z,101349.88
2017-09-18T19:24:16.821Z,101356.34
2017-09-18T19:26:47.954Z,101359.20
2017-09-18T19:29:18.607Z,101366.25
2017-09-18T19:31:49.722Z,101366.01
2017-09-18T19:34:20.824Z,101371.67
2017-09-18T19:36:51.397Z,101377.96
2017-09-18T19:39:21.870Z,101378.31
2017-09-18T19:41:52.809Z,101377.82
2017-09-18T19:44:24.121Z,101382.55
2017-09-18T19:46:59.457Z,101381.34
2017-09-18T19:49:30.612Z,101390.84
2017-09-18T19:52:01.765Z,101389.04
2017-09-18T19:54:32.910Z,101389.70
2017-09-18T19:57:04.027Z,101392.23
2017-09-18T19:59:34.790Z,101405.22
2017-09-18T20:02:06.005Z,101392.28
2017-09-18T20:04:37.243Z,101397.56
2017-09-18T20:07:08.740Z,101390.61
2017-09-18T20:09:39.667Z,101395.16
2017-09-18T20:12:11.134Z,101398.19
2017-09-18T20:14:41.997Z,101402.99
2017-09-18T20:17:12.472Z,101397.14
2017-09-18T20:19:43.495Z,101398.36
2017-09-18T20:39:32.882Z,101391.73
2017-09-18T20:42:02.854Z,101390.16
2017-09-18T20:47:24.059Z,101393.52
2017-09-18T20:49:51.708Z,101393.88
2017-09-18T20:52:19.326Z,101391.61
2017-09-18T20:54:47.078Z,101393.58
2017-09-18T20:57:14.781Z,101389.55
2017-09-18T20:59:42.533Z,101381.70
2017-09-18T21:02:10.222Z,101382.09
2017-09-18T21:04:37.968Z,101381.02
2017-09-18T21:07:05.687Z,101381.98
2017-09-18T21:09:33.436Z,101383.38
2017-09-18T21:12:01.138Z,101382.44
2017-09-18T21:14:28.787Z,101383.30
2017-09-18T21:16:56.492Z,101378.04
2017-09-18T21:19:24.222Z,101383.83
2017-09-18T21:21:51.904Z,101382.27
2017-09-18T21:24:19.556Z,101386.24
2017-09-18T21:26:47.196Z,101382.05
2017-09-18T21:29:14.932Z,101377.95
2017-09-18T21:31:42.649Z,101380.91
2017-09-18T21:34:10.432Z,101381.08
2017-09-18T21:36:38.730Z,101377.80
2017-09-18T21:39:06.533Z,101372.87
2017-09-18T21:41:34.162Z,101374.04
2017-09-18T21:44:01.905Z,101376.63
2017-09-18T21:46:29.616Z,101373.81
2017-09-18T21:48:57.347Z,101368.02
2017-09-18T21:51:24.967Z,101369.33
2017-09-18T21:53:52.733Z,101368.09
2017-09-18T21:56:20.422Z,101367.32
2017-09-18T21:58:48.161Z,101365.67
2017-09-18T22:01:15.856Z,101369.17
2017-09-18T22:03:43.580Z,101367.06
2017-09-18T22:06:11.198Z,101366.03
2017-09-18T22:08:38.849Z,101366.63
2017-09-18T22:11:06.550Z,101364.73
2017-09-18T22:13:34.282Z,101361.05
2017-09-18T22:16:01.947Z,101366.22
2017-09-18T22:18:29.687Z,101362.41
2017-09-18T22:20:57.376Z,101365.05
2017-09-18T22:23:25.089Z,101366.34
2017-09-18T22:25:52.765Z,101365.93
2017-09-18T22:28:20.561Z,101362.20
2017-09-18T22:30:48.287Z,101359.98
2017-09-18T22:33:15.968Z,101358.83
2017-09-18T22:35:43.689Z,101359.89
2017-09-18T22:38:11.452Z,101363.39
2017-09-18T22:40:39.197Z,101362.47
2017-09-18T22:43:06.891Z,101362.48
2017-09-18T22:45:34.672Z,101366.21
2017-09-18T22:48:02.270Z,101360.70
2017-09-18T22:50:29.910Z,101371.44
2017-09-18T22:52:57.496Z,101369.08
2017-09-18T22:55:25.224Z,101369.65
2017-09-18T22:57:52.955Z,101371.77
2017-09-18T23:00:20.669Z,101364.98
2017-09-18T23:02:48.345Z,101367.91
2017-09-18T23:05:16.100Z,101368.06
2017-09-18T23:07:43.805Z,101368.59
2017-09-18T23:10:11.544Z,101370.52
2017-09-18T23:12:39.236Z,101373.72
2017-09-18T23:15:06.993Z,101369.15
2017-09-18T23:17:34.692Z,101370.43
2017-09-18T23:20:02.426Z,101370.06
2017-09-18T23:22:30.102Z,101369.52
2017-09-18T23:24:57.750Z,101372.87
2017-09-18T23:27:25.359Z,101371.25
2017-09-18T23:29:53.081Z,101366.52
2017-09-18T23:32:20.761Z,101369.73
2017-09-18T23:34:48.508Z,101364.33
2017-09-18T23:37:16.224Z,101363.62
2017-09-18T23:39:43.968Z,101363.20
2017-09-18T23:42:11.661Z,101355.42
2017-09-18T23:44:39.411Z,101358.06
2017-09-18T23:47:07.084Z,101360.29
2017-09-18T23:49:34.850Z,101355.73
2017-09-18T23:52:02.534Z,101359.22
2017-09-18T23:54:30.260Z,101357.12
2017-09-18T23:56:57.958Z,101358.50
2017-09-18T23:59:25.679Z,101353.10
